sensor_id;sensor_type;location;lat;lon;timestamp;temperature;humidity
8780;DHT22;62328;51.19929245;4.42130175;2023-02-19T00:00:12;11.70;99.90
8780;DHT22;62328;51.19929245;4.42130175;2023-02-19T00:02:40;11.70;99.90
8780;DHT22;62328;51.19929245;4.42130175;2023-02-19T00:05:08;11.60;99.90
8780;DHT22;62328;51.19929245;4.42130175;2023-02-19T00:07:34;11.60;99.90
8780;DHT22;62328;51.19929245;4.42130175;2023-02-19T00:10:01;11.60;99.90
8780;DHT22;62328;51.19929245;4.42130175;2023-02-19T00:12:28;11.60;99.90
8780;DHT22;62328;51.19929245;4.42130175;2023-02-19T00:14:57;11.50;99.90
8780;DHT22;62328;51.19929245;4.42130175;2023-02-19T00:17:24;11.50;99.90
8780;DHT22;62328;51.19929245;4.42130175;2023-02-19T00:19:50;11.60;99.90
8780;DHT22;62328;51.19929245;4.42130175;2023-02-19T00:22:17;11.60;99.90
8780;DHT22;62328;51.19929245;4.42130175;2023-02-19T00:24:44;11.60;99.90
8780;DHT22;62328;51.19929245;4.42130175;2023-02-19T00:27:11;11.70;99.90
8780;DHT22;62328;51.19929245;4.42130175;2023-02-19T00:29:37;11.60;99.90
8780;DHT22;62328;51.19929245;4.42130175;2023-02-19T00:32:06;11.60;99.90
8780;DHT22;62328;51.19929245;4.42130175;2023-02-19T00:34:32;11.60;99.90
8780;DHT22;62328;51.19929245;4.42130175;2023-02-19T00:36:59;11.60;99.90
8780;DHT22;62328;51.19929245;4.42130175;2023-02-19T00:39:26;11.60;99.90
8780;DHT22;62328;51.19929245;4.42130175;2023-02-19T00:41:53;11.60;99.90
8780;DHT22;62328;51.19929245;4.42130175;2023-02-19T00:44:19;11.50;99.90
8780;DHT22;62328;51.19929245;4.42130175;2023-02-19T00:46:46;11.60;99.90
8780;DHT22;62328;51.19929245;4.42130175;2023-02-19T00:49:17;11.50;99.90
8780;DHT22;62328;51.19929245;4.42130175;2023-02-19T00:51:44;11.50;99.90
8780;DHT22;62328;51.19929245;4.42130175;2023-02-19T00:54:12;11.50;99.90
8780;DHT22;62328;51.19929245;4.42130175;2023-02-19T00:56:39;11.60;99.90
8780;DHT22;62328;51.19929245;4.42130175;2023-02-19T00:59:06;11.50;99.90
8780;DHT22;62328;51.19929245;4.42130175;2023-02-19T01:01:32;11.40;99.90
8780;DHT22;62328;51.19929245;4.42130175;2023-02-19T01:03:59;11.50;99.90
8780;DHT22;62328;51.19929245;4.42130175;2023-02-19T01:06:27;11.50;99.90
8780;DHT22;62328;51.19929245;4.42130175;2023-02-19T01:08:57;11.40;99.90
8780;DHT22;62328;51.19929245;4.42130175;2023-02-19T01:11:24;11.50;99.90
8780;DHT22;62328;51.19929245;4.42130175;2023-02-19T01:13:51;11.50;99.90
8780;DHT22;62328;51.19929245;4.42130175;2023-02-19T01:16:20;11.50;99.90
8780;DHT22;62328;51.19929245;4.42130175;2023-02-19T01:18:48;11.50;99.90
8780;DHT22;62328;51.19929245;4.42130175;2023-02-19T01:21:16;11.40;99.90
8780;DHT22;62328;51.19929245;4.42130175;2023-02-19T01:23:45;11.50;99.90
8780;DHT22;62328;51.19929245;4.42130175;2023-02-19T01:26:15;11.50;99.90
8780;DHT22;62328;51.19929245;4.42130175;2023-02-19T01:28:42;11.40;99.90
8780;DHT22;62328;51.19929245;4.42130175;2023-02-19T01:31:13;11.40;99.90
8780;DHT22;62328;51.19929245;4.42130175;2023-02-19T01:33:43;11.40;99.90
8780;DHT22;62328;51.19929245;4.42130175;2023-02-19T01:36:10;11.40;99.90
8780;DHT22;62328;51.19929245;4.42130175;2023-02-19T01:38:37;11.40;99.90
8780;DHT22;62328;51.19929245;4.42130175;2023-02-19T01:41:07;11.40;99.90
8780;DHT22;62328;51.19929245;4.42130175;2023-02-19T01:43:58;11.40;99.90
8780;DHT22;62328;51.19929245;4.42130175;2023-02-19T01:46:26;11.30;99.90
8780;DHT22;62328;51.19929245;4.42130175;2023-02-19T01:48:53;11.40;99.90
8780;DHT22;62328;51.19929245;4.42130175;2023-02-19T01:51:21;11.40;99.90
8780;DHT22;62328;51.19929245;4.42130175;2023-02-19T01:53:51;11.30;99.90
8780;DHT22;62328;51.19929245;4.42130175;2023-02-19T01:56:22;11.30;99.90
8780;DHT22;62328;51.19929245;4.42130175;2023-02-19T01:58:50;11.30;99.90
8780;DHT22;62328;51.19929245;4.42130175;2023-02-19T02:01:17;11.30;99.90
8780;DHT22;62328;51.19929245;4.42130175;2023-02-19T02:03:46;11.30;99.90
8780;DHT22;62328;51.19929245;4.42130175;2023-02-19T02:06:19;11.30;99.90
8780;DHT22;62328;51.19929245;4.42130175;2023-02-19T02:08:49;11.20;99.90
8780;DHT22;62328;51.19929245;4.42130175;2023-02-19T02:11:35;11.20;99.90
8780;DHT22;62328;51.19929245;4.42130175;2023-02-19T02:14:03;11.20;99.90
8780;DHT22;62328;51.19929245;4.42130175;2023-02-19T02:16:37;11.30;99.90
8780;DHT22;62328;51.19929245;4.42130175;2023-02-19T02:19:15;11.30;99.90
8780;DHT22;62328;51.19929245;4.42130175;2023-02-19T02:22:02;11.30;99.90
8780;DHT22;62328;51.19929245;4.42130175;2023-02-19T02:27:54;11.20;99.90
8780;DHT22;62328;51.19929245;4.42130175;2023-02-19T02:30:35;11.20;99.90
8780;DHT22;62328;51.19929245;4.42130175;2023-02-19T02:33:10;11.20;99.90
8780;DHT22;62328;51.19929245;4.42130175;2023-02-19T02:35:43;11.30;99.90
8780;DHT22;62328;51.19929245;4.42130175;2023-02-19T02:38:11;11.30;99.90
8780;DHT22;62328;51.19929245;4.42130175;2023-02-19T02:40:42;11.30;99.90
8780;DHT22;62328;51.19929245;4.42130175;2023-02-19T02:43:12;11.30;99.90
8780;DHT22;62328;51.19929245;4.42130175;2023-02-19T02:45:40;11.30;99.90
8780;DHT22;62328;51.19929245;4.42130175;2023-02-19T02:48:16;11.30;99.90
8780;DHT22;62328;51.19929245;4.42130175;2023-02-19T02:50:47;11.20;99.90
8780;DHT22;62328;51.19929245;4.42130175;2023-02-19T02:53:19;11.20;99.90
8780;DHT22;62328;51.19929245;4.42130175;2023-02-19T02:56:04;11.30;99.90
8780;DHT22;62328;51.19929245;4.42130175;2023-02-19T02:58:33;11.20;99.90
8780;DHT22;62328;51.19929245;4.42130175;2023-02-19T03:01:04;11.30;99.90
8780;DHT22;62328;51.19929245;4.42130175;2023-02-19T03:03:53;11.30;99.90
8780;DHT22;62328;51.19929245;4.42130175;2023-02-19T03:06:24;11.30;99.90
8780;DHT22;62328;51.19929245;4.42130175;2023-02-19T03:08:56;11.30;99.90
8780;DHT22;62328;51.19929245;4.42130175;2023-02-19T03:11:25;11.30;99.90
8780;DHT22;62328;51.19929245;4.42130175;2023-02-19T03:14:14;11.30;99.90
8780;DHT22;62328;51.19929245;4.42130175;2023-02-19T03:17:05;11.20;99.90
8780;DHT22;62328;51.19929245;4.42130175;2023-02-19T03:19:54;11.30;99.90
8780;DHT22;62328;51.19929245;4.42130175;2023-02-19T03:22:24;11.30;99.90
8780;DHT22;62328;51.19929245;4.42130175;2023-02-19T03:24:55;11.30;99.90
8780;DHT22;62328;51.19929245;4.42130175;2023-02-19T03:27:42;11.40;99.90
8780;DHT22;62328;51.19929245;4.42130175;2023-02-19T03:30:13;11.30;99.90
8780;DHT22;62328;51.19929245;4.42130175;2023-02-19T03:32:46;11.30;99.90
8780;DHT22;62328;51.19929245;4.42130175;2023-02-19T03:35:16;11.20;99.90
8780;DHT22;62328;51.19929245;4.42130175;2023-02-19T03:37:46;11.20;99.90
8780;DHT22;62328;51.19929245;4.42130175;2023-02-19T03:40:16;11.20;99.90
8780;DHT22;62328;51.19929245;4.42130175;2023-02-19T03:42:48;11.10;99.90
8780;DHT22;62328;51.19929245;4.42130175;2023-02-19T03:45:37;11.20;99.90
8780;DHT22;62328;51.19929245;4.42130175;2023-02-19T03:48:19;11.20;99.90
8780;DHT22;62328;51.19929245;4.42130175;2023-02-19T03:50:54;11.20;99.90
8780;DHT22;62328;51.19929245;4.42130175;2023-02-19T03:53:28;11.20;99.90
8780;DHT22;62328;51.19929245;4.42130175;2023-02-19T03:56:09;11.20;99.90
8780;DHT22;62328;51.19929245;4.42130175;2023-02-19T03:58:42;11.20;99.90
8780;DHT22;62328;51.19929245;4.42130175;2023-02-19T04:01:16;11.20;99.90
8780;DHT22;62328;51.19929245;4.42130175;2023-02-19T04:03:49;11.20;99.90
8780;DHT22;62328;51.19929245;4.42130175;2023-02-19T04:06:21;11.30;99.90
8780;DHT22;62328;51.19929245;4.42130175;2023-02-19T04:08:55;11.20;99.90
8780;DHT22;62328;51.19929245;4.42130175;2023-02-19T04:11:26;11.20;99.90
8780;DHT22;62328;51.19929245;4.42130175;2023-02-19T04:13:57;11.20;99.90
8780;DHT22;62328;51.19929245;4.42130175;2023-02-19T04:16:27;11.20;99.90
8780;DHT22;62328;51.19929245;4.42130175;2023-02-19T04:18:58;11.20;99.90
8780;DHT22;62328;51.19929245;4.42130175;2023-02-19T04:21:30;11.20;99.90
8780;DHT22;62328;51.19929245;4.42130175;2023-02-19T04:24:01;11.20;99.90
8780;DHT22;62328;51.19929245;4.42130175;2023-02-19T04:26:30;11.20;99.90
8780;DHT22;62328;51.19929245;4.42130175;2023-02-19T04:28:58;11.20;99.90
8780;DHT22;62328;51.19929245;4.42130175;2023-02-19T04:31:25;11.20;99.90
8780;DHT22;62328;51.19929245;4.42130175;2023-02-19T04:33:53;11.20;99.90
8780;DHT22;62328;51.19929245;4.42130175;2023-02-19T04:36:21;11.20;99.90
8780;DHT22;62328;51.19929245;4.42130175;2023-02-19T04:38:48;11.20;99.90
8780;DHT22;62328;51.19929245;4.42130175;2023-02-19T04:41:14;11.20;99.90
8780;DHT22;62328;51.19929245;4.42130175;2023-02-19T04:43:41;11.20;99.90
8780;DHT22;62328;51.19929245;4.42130175;2023-02-19T04:46:08;11.20;99.90
8780;DHT22;62328;51.19929245;4.42130175;2023-02-19T04:48:35;11.20;99.90
8780;DHT22;62328;51.19929245;4.42130175;2023-02-19T04:51:04;11.20;99.90
8780;DHT22;62328;51.19929245;4.42130175;2023-02-19T04:53:33;11.10;99.90
8780;DHT22;62328;51.19929245;4.42130175;2023-02-19T04:56:05;11.20;99.90
8780;DHT22;62328;51.19929245;4.42130175;2023-02-19T04:58:32;11.10;99.90
8780;DHT22;62328;51.19929245;4.42130175;2023-02-19T05:00:59;11.10;99.90
8780;DHT22;62328;51.19929245;4.42130175;2023-02-19T05:03:26;11.10;99.90
8780;DHT22;62328;51.19929245;4.42130175;2023-02-19T05:05:53;11.10;99.90
8780;DHT22;62328;51.19929245;4.42130175;2023-02-19T05:08:19;11.10;99.90
8780;DHT22;62328;51.19929245;4.42130175;2023-02-19T05:10:48;11.10;99.90
8780;DHT22;62328;51.19929245;4.42130175;2023-02-19T05:13:14;11.10;99.90
8780;DHT22;62328;51.19929245;4.42130175;2023-02-19T05:15:41;11.10;99.90
8780;DHT22;62328;51.19929245;4.42130175;2023-02-19T05:18:08;11.10;99.90
8780;DHT22;62328;51.19929245;4.42130175;2023-02-19T05:20:35;11.10;99.90
8780;DHT22;62328;51.19929245;4.42130175;2023-02-19T05:23:02;11.10;99.90
8780;DHT22;62328;51.19929245;4.42130175;2023-02-19T05:25:29;11.10;99.90
8780;DHT22;62328;51.19929245;4.42130175;2023-02-19T05:27:57;11.00;99.90
8780;DHT22;62328;51.19929245;4.42130175;2023-02-19T05:30:41;11.00;99.90
8780;DHT22;62328;51.19929245;4.42130175;2023-02-19T05:33:08;11.10;99.90
8780;DHT22;62328;51.19929245;4.42130175;2023-02-19T05:35:40;11.10;99.90
8780;DHT22;62328;51.19929245;4.42130175;2023-02-19T05:38:07;11.10;99.90
8780;DHT22;62328;51.19929245;4.42130175;2023-02-19T05:40:34;11.00;99.90
8780;DHT22;62328;51.19929245;4.42130175;2023-02-19T05:43:02;11.00;99.90
8780;DHT22;62328;51.19929245;4.42130175;2023-02-19T05:45:28;11.10;99.90
8780;DHT22;62328;51.19929245;4.42130175;2023-02-19T05:47:55;11.00;99.90
8780;DHT22;62328;51.19929245;4.42130175;2023-02-19T05:50:22;11.00;99.90
8780;DHT22;62328;51.19929245;4.42130175;2023-02-19T05:52:49;11.00;99.90
8780;DHT22;62328;51.19929245;4.42130175;2023-02-19T05:55:16;10.90;99.90
8780;DHT22;62328;51.19929245;4.42130175;2023-02-19T05:57:44;10.90;99.90
8780;DHT22;62328;51.19929245;4.42130175;2023-02-19T06:00:15;11.00;99.90
8780;DHT22;62328;51.19929245;4.42130175;2023-02-19T06:02:42;10.90;99.90
8780;DHT22;62328;51.19929245;4.42130175;2023-02-19T06:05:09;10.90;99.90
8780;DHT22;62328;51.19929245;4.42130175;2023-02-19T06:07:36;10.90;99.90
8780;DHT22;62328;51.19929245;4.42130175;2023-02-19T06:10:04;10.80;99.90
8780;DHT22;62328;51.19929245;4.42130175;2023-02-19T06:12:31;10.80;99.90
8780;DHT22;62328;51.19929245;4.42130175;2023-02-19T06:14:58;10.80;99.90
8780;DHT22;62328;51.19929245;4.42130175;2023-02-19T06:17:26;10.70;99.90
8780;DHT22;62328;51.19929245;4.42130175;2023-02-19T06:19:53;10.70;99.90
8780;DHT22;62328;51.19929245;4.42130175;2023-02-19T06:22:20;10.70;99.90
8780;DHT22;62328;51.19929245;4.42130175;2023-02-19T06:24:47;10.70;99.90
8780;DHT22;62328;51.19929245;4.42130175;2023-02-19T06:27:14;10.70;99.90
8780;DHT22;62328;51.19929245;4.42130175;2023-02-19T06:29:41;10.70;99.90
8780;DHT22;62328;51.19929245;4.42130175;2023-02-19T06:32:07;10.70;99.90
8780;DHT22;62328;51.19929245;4.42130175;2023-02-19T06:34:36;10.60;99.90
8780;DHT22;62328;51.19929245;4.42130175;2023-02-19T06:37:03;10.60;99.90
8780;DHT22;62328;51.19929245;4.42130175;2023-02-19T06:39:30;10.60;99.90
8780;DHT22;62328;51.19929245;4.42130175;2023-02-19T06:41:57;10.60;99.90
8780;DHT22;62328;51.19929245;4.42130175;2023-02-19T06:44:24;10.60;99.90
8780;DHT22;62328;51.19929245;4.42130175;2023-02-19T06:46:54;10.60;99.90
8780;DHT22;62328;51.19929245;4.42130175;2023-02-19T06:49:21;10.60;99.90
8780;DHT22;62328;51.19929245;4.42130175;2023-02-19T06:51:49;10.50;99.90
8780;DHT22;62328;51.19929245;4.42130175;2023-02-19T06:54:17;10.50;99.90
8780;DHT22;62328;51.19929245;4.42130175;2023-02-19T06:56:44;10.50;99.90
8780;DHT22;62328;51.19929245;4.42130175;2023-02-19T06:59:13;10.60;99.90
8780;DHT22;62328;51.19929245;4.42130175;2023-02-19T07:01:43;10.60;99.90
8780;DHT22;62328;51.19929245;4.42130175;2023-02-19T07:04:10;10.60;99.90
8780;DHT22;62328;51.19929245;4.42130175;2023-02-19T07:06:40;10.60;99.90
8780;DHT22;62328;51.19929245;4.42130175;2023-02-19T07:09:10;10.60;99.90
8780;DHT22;62328;51.19929245;4.42130175;2023-02-19T07:11:38;10.60;99.90
8780;DHT22;62328;51.19929245;4.42130175;2023-02-19T07:14:07;10.60;99.90
8780;DHT22;62328;51.19929245;4.42130175;2023-02-19T07:16:34;10.60;99.90
8780;DHT22;62328;51.19929245;4.42130175;2023-02-19T07:19:01;10.60;99.90
8780;DHT22;62328;51.19929245;4.42130175;2023-02-19T07:21:28;10.60;99.90
8780;DHT22;62328;51.19929245;4.42130175;2023-02-19T07:23:56;10.60;99.90
8780;DHT22;62328;51.19929245;4.42130175;2023-02-19T07:26:24;10.60;99.90
8780;DHT22;62328;51.19929245;4.42130175;2023-02-19T07:28:51;10.60;99.90
8780;DHT22;62328;51.19929245;4.42130175;2023-02-19T07:31:21;10.70;99.90
8780;DHT22;62328;51.19929245;4.42130175;2023-02-19T07:33:49;10.70;99.90
8780;DHT22;62328;51.19929245;4.42130175;2023-02-19T07:36:16;10.60;99.90
8780;DHT22;62328;51.19929245;4.42130175;2023-02-19T07:38:43;10.60;99.90
8780;DHT22;62328;51.19929245;4.42130175;2023-02-19T07:41:10;10.60;99.90
8780;DHT22;62328;51.19929245;4.42130175;2023-02-19T07:43:39;10.60;99.90
8780;DHT22;62328;51.19929245;4.42130175;2023-02-19T07:46:07;10.60;99.90
8780;DHT22;62328;51.19929245;4.42130175;2023-02-19T07:48:34;10.60;99.90
8780;DHT22;62328;51.19929245;4.42130175;2023-02-19T07:51:02;10.70;99.90
8780;DHT22;62328;51.19929245;4.42130175;2023-02-19T07:53:31;10.70;99.90
8780;DHT22;62328;51.19929245;4.42130175;2023-02-19T07:55:59;10.60;99.90
8780;DHT22;62328;51.19929245;4.42130175;2023-02-19T07:58:27;10.70;99.90
8780;DHT22;62328;51.19929245;4.42130175;2023-02-19T08:00:55;10.70;99.90
8780;DHT22;62328;51.19929245;4.42130175;2023-02-19T08:03:22;10.70;99.90
8780;DHT22;62328;51.19929245;4.42130175;2023-02-19T08:05:48;10.70;99.90
8780;DHT22;62328;51.19929245;4.42130175;2023-02-19T08:08:16;10.70;99.90
8780;DHT22;62328;51.19929245;4.42130175;2023-02-19T08:10:43;10.70;99.90
8780;DHT22;62328;51.19929245;4.42130175;2023-02-19T08:13:29;10.80;99.90
8780;DHT22;62328;51.19929245;4.42130175;2023-02-19T08:16:10;10.80;99.90
8780;DHT22;62328;51.19929245;4.42130175;2023-02-19T08:18:37;10.80;99.90
8780;DHT22;62328;51.19929245;4.42130175;2023-02-19T08:21:04;10.80;99.90
8780;DHT22;62328;51.19929245;4.42130175;2023-02-19T08:23:31;10.80;99.90
8780;DHT22;62328;51.19929245;4.42130175;2023-02-19T08:25:59;10.80;99.90
8780;DHT22;62328;51.19929245;4.42130175;2023-02-19T08:28:26;10.80;99.90
8780;DHT22;62328;51.19929245;4.42130175;2023-02-19T08:31:00;10.90;99.90
8780;DHT22;62328;51.19929245;4.42130175;2023-02-19T08:33:27;10.90;99.90
8780;DHT22;62328;51.19929245;4.42130175;2023-02-19T08:35:55;10.90;99.90
8780;DHT22;62328;51.19929245;4.42130175;2023-02-19T08:38:22;10.90;99.90
8780;DHT22;62328;51.19929245;4.42130175;2023-02-19T08:40:48;10.90;99.90
8780;DHT22;62328;51.19929245;4.42130175;2023-02-19T08:43:16;10.90;99.90
8780;DHT22;62328;51.19929245;4.42130175;2023-02-19T08:45:45;10.90;99.90
8780;DHT22;62328;51.19929245;4.42130175;2023-02-19T08:48:14;11.00;99.90
8780;DHT22;62328;51.19929245;4.42130175;2023-02-19T08:50:41;11.00;99.90
8780;DHT22;62328;51.19929245;4.42130175;2023-02-19T08:53:07;11.00;99.90
8780;DHT22;62328;51.19929245;4.42130175;2023-02-19T08:55:36;11.00;99.90
8780;DHT22;62328;51.19929245;4.42130175;2023-02-19T08:58:04;11.10;99.90
8780;DHT22;62328;51.19929245;4.42130175;2023-02-19T09:00:31;11.10;99.90
8780;DHT22;62328;51.19929245;4.42130175;2023-02-19T09:02:58;11.10;99.90
8780;DHT22;62328;51.19929245;4.42130175;2023-02-19T09:05:26;11.10;99.90
8780;DHT22;62328;51.19929245;4.42130175;2023-02-19T09:07:52;11.20;99.90
8780;DHT22;62328;51.19929245;4.42130175;2023-02-19T09:10:19;11.20;99.90
8780;DHT22;62328;51.19929245;4.42130175;2023-02-19T09:12:46;11.20;99.90
8780;DHT22;62328;51.19929245;4.42130175;2023-02-19T09:15:13;11.30;99.90
8780;DHT22;62328;51.19929245;4.42130175;2023-02-19T09:17:40;11.30;99.90
8780;DHT22;62328;51.19929245;4.42130175;2023-02-19T09:20:07;11.20;99.90
8780;DHT22;62328;51.19929245;4.42130175;2023-02-19T09:22:36;11.20;99.90
8780;DHT22;62328;51.19929245;4.42130175;2023-02-19T09:25:03;11.20;99.90
8780;DHT22;62328;51.19929245;4.42130175;2023-02-19T09:27:30;11.20;99.90
8780;DHT22;62328;51.19929245;4.42130175;2023-02-19T09:29:58;11.20;99.90
8780;DHT22;62328;51.19929245;4.42130175;2023-02-19T09:32:25;11.20;99.90
8780;DHT22;62328;51.19929245;4.42130175;2023-02-19T09:34:53;11.30;99.90
8780;DHT22;62328;51.19929245;4.42130175;2023-02-19T09:37:24;11.30;99.90
8780;DHT22;62328;51.19929245;4.42130175;2023-02-19T09:39:53;11.30;99.90
8780;DHT22;62328;51.19929245;4.42130175;2023-02-19T09:42:22;11.30;99.90
8780;DHT22;62328;51.19929245;4.42130175;2023-02-19T09:44:51;11.40;99.90
8780;DHT22;62328;51.19929245;4.42130175;2023-02-19T09:47:21;11.50;99.90
8780;DHT22;62328;51.19929245;4.42130175;2023-02-19T09:49:50;11.50;99.90
8780;DHT22;62328;51.19929245;4.42130175;2023-02-19T09:52:24;11.40;99.90
8780;DHT22;62328;51.19929245;4.42130175;2023-02-19T09:54:58;11.40;99.90
8780;DHT22;62328;51.19929245;4.42130175;2023-02-19T09:57:29;11.40;99.90
8780;DHT22;62328;51.19929245;4.42130175;2023-02-19T10:00:00;11.40;99.90
8780;DHT22;62328;51.19929245;4.42130175;2023-02-19T10:02:28;11.40;99.90
8780;DHT22;62328;51.19929245;4.42130175;2023-02-19T10:04:56;11.40;99.90
8780;DHT22;62328;51.19929245;4.42130175;2023-02-19T10:07:27;11.40;99.90
8780;DHT22;62328;51.19929245;4.42130175;2023-02-19T10:09:59;11.40;99.90
8780;DHT22;62328;51.19929245;4.42130175;2023-02-19T10:12:30;11.40;99.90
8780;DHT22;62328;51.19929245;4.42130175;2023-02-19T10:15:03;11.30;99.90
8780;DHT22;62328;51.19929245;4.42130175;2023-02-19T10:17:34;11.30;99.90
8780;DHT22;62328;51.19929245;4.42130175;2023-02-19T10:20:02;11.30;99.90
8780;DHT22;62328;51.19929245;4.42130175;2023-02-19T10:22:30;11.30;99.90
8780;DHT22;62328;51.19929245;4.42130175;2023-02-19T10:24:59;11.30;99.90
8780;DHT22;62328;51.19929245;4.42130175;2023-02-19T10:27:29;11.30;99.90
8780;DHT22;62328;51.19929245;4.42130175;2023-02-19T10:29:57;11.30;99.90
8780;DHT22;62328;51.19929245;4.42130175;2023-02-19T10:32:25;11.40;99.90
8780;DHT22;62328;51.19929245;4.42130175;2023-02-19T10:35:10;11.30;99.90
8780;DHT22;62328;51.19929245;4.42130175;2023-02-19T10:37:41;11.30;99.90
8780;DHT22;62328;51.19929245;4.42130175;2023-02-19T10:40:17;11.30;99.90
8780;DHT22;62328;51.19929245;4.42130175;2023-02-19T10:42:46;11.30;99.90
8780;DHT22;62328;51.19929245;4.42130175;2023-02-19T10:45:18;11.30;99.90
8780;DHT22;62328;51.19929245;4.42130175;2023-02-19T10:47:45;11.30;99.90
8780;DHT22;62328;51.19929245;4.42130175;2023-02-19T10:50:21;11.30;99.90
8780;DHT22;62328;51.19929245;4.42130175;2023-02-19T10:52:51;11.20;99.90
8780;DHT22;62328;51.19929245;4.42130175;2023-02-19T10:55:27;11.20;99.90
8780;DHT22;62328;51.19929245;4.42130175;2023-02-19T10:57:55;11.20;99.90
8780;DHT22;62328;51.19929245;4.42130175;2023-02-19T11:00:23;11.20;99.90
8780;DHT22;62328;51.19929245;4.42130175;2023-02-19T11:03:13;11.20;99.90
8780;DHT22;62328;51.19929245;4.42130175;2023-02-19T11:05:50;11.20;99.90
8780;DHT22;62328;51.19929245;4.42130175;2023-02-19T11:08:21;11.20;99.90
8780;DHT22;62328;51.19929245;4.42130175;2023-02-19T11:10:50;11.20;99.90
8780;DHT22;62328;51.19929245;4.42130175;2023-02-19T11:13:23;11.20;99.90
8780;DHT22;62328;51.19929245;4.42130175;2023-02-19T11:15:52;11.20;99.90
8780;DHT22;62328;51.19929245;4.42130175;2023-02-19T11:18:22;11.30;99.90
8780;DHT22;62328;51.19929245;4.42130175;2023-02-19T11:20:52;11.30;99.90
8780;DHT22;62328;51.19929245;4.42130175;2023-02-19T11:23:24;11.40;99.90
8780;DHT22;62328;51.19929245;4.42130175;2023-02-19T11:25:54;11.60;99.90
8780;DHT22;62328;51.19929245;4.42130175;2023-02-19T11:28:32;11.60;99.90
8780;DHT22;62328;51.19929245;4.42130175;2023-02-19T11:31:14;11.60;99.90
8780;DHT22;62328;51.19929245;4.42130175;2023-02-19T11:33:54;11.50;99.90
8780;DHT22;62328;51.19929245;4.42130175;2023-02-19T11:36:30;11.50;99.90
8780;DHT22;62328;51.19929245;4.42130175;2023-02-19T11:38:59;11.50;99.90
8780;DHT22;62328;51.19929245;4.42130175;2023-02-19T11:42:04;11.60;99.90
8780;DHT22;62328;51.19929245;4.42130175;2023-02-19T11:44:42;11.60;99.90
8780;DHT22;62328;51.19929245;4.42130175;2023-02-19T11:47:36;11.50;99.90
8780;DHT22;62328;51.19929245;4.42130175;2023-02-19T11:50:17;11.50;99.90
8780;DHT22;62328;51.19929245;4.42130175;2023-02-19T11:52:53;11.50;99.90
8780;DHT22;62328;51.19929245;4.42130175;2023-02-19T11:55:33;11.50;99.90
8780;DHT22;62328;51.19929245;4.42130175;2023-02-19T11:58:14;11.60;99.90
8780;DHT22;62328;51.19929245;4.42130175;2023-02-19T12:00:48;11.70;99.90
8780;DHT22;62328;51.19929245;4.42130175;2023-02-19T12:03:40;11.70;99.90
8780;DHT22;62328;51.19929245;4.42130175;2023-02-19T12:06:19;11.80;99.90
8780;DHT22;62328;51.19929245;4.42130175;2023-02-19T12:09:12;11.90;99.90
8780;DHT22;62328;51.19929245;4.42130175;2023-02-19T12:11:49;11.90;99.90
8780;DHT22;62328;51.19929245;4.42130175;2023-02-19T12:17:40;12.10;99.90
8780;DHT22;62328;51.19929245;4.42130175;2023-02-19T12:20:16;11.90;99.90
8780;DHT22;62328;51.19929245;4.42130175;2023-02-19T12:22:50;11.90;99.90
8780;DHT22;62328;51.19929245;4.42130175;2023-02-19T12:25:43;11.90;99.90
8780;DHT22;62328;51.19929245;4.42130175;2023-02-19T12:28:25;11.80;99.90
8780;DHT22;62328;51.19929245;4.42130175;2023-02-19T12:31:30;11.70;99.90
8780;DHT22;62328;51.19929245;4.42130175;2023-02-19T12:34:19;11.60;99.90
8780;DHT22;62328;51.19929245;4.42130175;2023-02-19T12:37:00;11.60;99.90
8780;DHT22;62328;51.19929245;4.42130175;2023-02-19T12:39:36;11.60;99.90
8780;DHT22;62328;51.19929245;4.42130175;2023-02-19T12:42:09;11.60;99.90
8780;DHT22;62328;51.19929245;4.42130175;2023-02-19T12:44:41;11.60;99.90
8780;DHT22;62328;51.19929245;4.42130175;2023-02-19T12:47:15;11.70;99.90
8780;DHT22;62328;51.19929245;4.42130175;2023-02-19T12:49:49;11.70;99.90
8780;DHT22;62328;51.19929245;4.42130175;2023-02-19T12:52:20;11.70;99.90
8780;DHT22;62328;51.19929245;4.42130175;2023-02-19T12:54:51;11.70;99.90
8780;DHT22;62328;51.19929245;4.42130175;2023-02-19T12:57:20;11.60;99.90
8780;DHT22;62328;51.19929245;4.42130175;2023-02-19T12:59:51;11.60;99.90
8780;DHT22;62328;51.19929245;4.42130175;2023-02-19T13:02:22;11.50;99.90
8780;DHT22;62328;51.19929245;4.42130175;2023-02-19T13:04:57;11.40;99.90
8780;DHT22;62328;51.19929245;4.42130175;2023-02-19T13:07:30;11.40;99.90
8780;DHT22;62328;51.19929245;4.42130175;2023-02-19T13:10:18;11.30;99.90
8780;DHT22;62328;51.19929245;4.42130175;2023-02-19T13:12:49;11.30;99.90
8780;DHT22;62328;51.19929245;4.42130175;2023-02-19T13:15:32;11.30;99.90
8780;DHT22;62328;51.19929245;4.42130175;2023-02-19T13:18:02;11.30;99.90
8780;DHT22;62328;51.19929245;4.42130175;2023-02-19T13:20:35;11.30;99.90
8780;DHT22;62328;51.19929245;4.42130175;2023-02-19T13:23:07;11.30;99.90
8780;DHT22;62328;51.19929245;4.42130175;2023-02-19T13:26:12;11.30;99.90
8780;DHT22;62328;51.19929245;4.42130175;2023-02-19T13:28:51;11.30;99.90
8780;DHT22;62328;51.19929245;4.42130175;2023-02-19T13:31:44;11.30;99.90
8780;DHT22;62328;51.19929245;4.42130175;2023-02-19T13:34:19;11.30;99.90
8780;DHT22;62328;51.19929245;4.42130175;2023-02-19T13:36:51;11.20;99.90
8780;DHT22;62328;51.19929245;4.42130175;2023-02-19T13:39:19;11.20;99.90
8780;DHT22;62328;51.19929245;4.42130175;2023-02-19T13:41:49;11.20;99.90
8780;DHT22;62328;51.19929245;4.42130175;2023-02-19T13:44:18;11.10;99.90
8780;DHT22;62328;51.19929245;4.42130175;2023-02-19T13:46:48;11.10;99.90
8780;DHT22;62328;51.19929245;4.42130175;2023-02-19T13:49:42;11.00;99.90
8780;DHT22;62328;51.19929245;4.42130175;2023-02-19T13:52:39;11.10;99.90
8780;DHT22;62328;51.19929245;4.42130175;2023-02-19T14:04:22;11.00;99.90
8780;DHT22;62328;51.19929245;4.42130175;2023-02-19T14:13:01;10.90;99.90
8780;DHT22;62328;51.19929245;4.42130175;2023-02-19T14:15:40;10.90;99.90
8780;DHT22;62328;51.19929245;4.42130175;2023-02-19T14:18:40;10.90;99.90